createdAt,value
2017-05-30T00:01:22.683Z,10.54
2017-05-30T00:03:51.154Z,10.78
2017-05-30T00:06:19.485Z,10.86
2017-05-30T00:08:47.803Z,11.08
2017-05-30T00:11:15.383Z,11.58
2017-05-30T00:13:43.712Z,10.00
2017-05-30T00:16:12.078Z,11.00
2017-05-30T00:18:40.402Z,10.42
2017-05-30T00:21:08.773Z,11.84
2017-05-30T00:23:37.096Z,11.58
2017-05-30T00:26:05.404Z,11.64
2017-05-30T00:28:33.748Z,10.96
2017-05-30T00:31:02.076Z,12.60
2017-05-30T00:33:30.425Z,11.58
2017-05-30T00:35:58.741Z,10.60
2017-05-30T00:38:27.111Z,11.94
2017-05-30T00:40:55.432Z,11.66
2017-05-30T00:43:23.839Z,11.22
2017-05-30T00:45:52.194Z,11.58
2017-05-30T00:48:20.518Z,12.22
2017-05-30T00:50:48.152Z,11.28
2017-05-30T00:53:16.537Z,11.74
2017-05-30T00:55:44.900Z,11.48
2017-05-30T00:58:14.230Z,12.60
2017-05-30T01:00:42.556Z,12.22
2017-05-30T01:03:10.912Z,12.00
2017-05-30T01:05:39.238Z,11.78
2017-05-30T01:08:07.657Z,12.36
2017-05-30T01:10:35.989Z,12.50
2017-05-30T01:13:04.419Z,12.76
2017-05-30T01:15:32.736Z,12.48
2017-05-30T01:18:02.063Z,12.20
2017-05-30T01:20:30.417Z,11.68
2017-05-30T01:22:58.733Z,11.48
2017-05-30T01:25:27.081Z,12.82
2017-05-30T01:27:55.401Z,12.18
2017-05-30T01:30:23.762Z,14.14
2017-05-30T01:32:52.076Z,13.22
2017-05-30T01:35:20.392Z,12.04
2017-05-30T01:37:48.742Z,12.92
2017-05-30T01:40:17.071Z,13.56
2017-05-30T01:42:45.469Z,13.48
2017-05-30T01:45:13.793Z,14.12
2017-05-30T01:47:42.141Z,14.34
2017-05-30T01:50:10.459Z,13.68
2017-05-30T01:52:38.782Z,12.86
2017-05-30T01:55:07.134Z,13.70
2017-05-30T01:57:35.502Z,14.22
2017-05-30T02:00:03.854Z,14.56
2017-05-30T02:02:32.176Z,14.78
2017-05-30T02:05:00.546Z,14.86
2017-05-30T02:07:28.863Z,14.22
2017-05-30T02:09:57.190Z,14.44
2017-05-30T02:12:25.538Z,15.20
2017-05-30T02:14:53.852Z,14.94
2017-05-30T02:17:22.223Z,14.52
2017-05-30T02:19:50.538Z,15.26
2017-05-30T02:22:18.875Z,15.36
2017-05-30T02:24:47.215Z,16.20
2017-05-30T02:27:15.533Z,15.64
2017-05-30T02:29:43.888Z,15.90
2017-05-30T02:32:12.208Z,14.44
2017-05-30T02:34:40.566Z,14.64
2017-05-30T02:37:08.884Z,14.72
2017-05-30T02:39:37.221Z,15.76
2017-05-30T02:42:05.571Z,15.40
2017-05-30T02:44:33.894Z,15.10
2017-05-30T02:47:02.265Z,17.20
2017-05-30T02:49:30.579Z,20.18
2017-05-30T02:51:58.909Z,17.72
2017-05-30T02:54:27.258Z,18.18
2017-05-30T02:56:55.585Z,18.46
2017-05-30T02:59:23.944Z,17.58
2017-05-30T03:01:52.269Z,19.64
2017-05-30T03:04:20.694Z,19.90
2017-05-30T03:06:49.042Z,22.80
2017-05-30T03:09:17.456Z,22.32
2017-05-30T03:11:45.799Z,21.76
2017-05-30T03:14:14.209Z,21.92
2017-05-30T03:16:42.553Z,20.94
2017-05-30T03:19:10.962Z,20.78
2017-05-30T03:21:39.331Z,20.36
2017-05-30T03:24:07.732Z,24.38
2017-05-30T03:26:36.066Z,26.28
2017-05-30T03:29:04.413Z,26.34
2017-05-30T03:31:32.741Z,26.20
2017-05-30T03:34:01.086Z,25.50
2017-05-30T03:36:29.399Z,26.06
2017-05-30T03:38:57.763Z,25.04
2017-05-30T03:41:26.083Z,26.20
2017-05-30T03:43:54.442Z,26.80
2017-05-30T03:46:22.791Z,24.78
2017-05-30T03:48:51.207Z,24.50
2017-05-30T03:51:19.564Z,26.76
2017-05-30T03:53:47.878Z,25.38
2017-05-30T03:56:16.255Z,24.50
2017-05-30T03:58:44.612Z,25.90
2017-05-30T04:01:12.931Z,25.76
2017-05-30T04:03:41.317Z,27.04
2017-05-30T04:06:09.683Z,27.56
2017-05-30T04:08:38.053Z,26.52
2017-05-30T04:11:06.365Z,25.18
2017-05-30T04:13:34.717Z,24.32
2017-05-30T04:16:03.045Z,25.36
2017-05-30T04:18:31.360Z,25.50
2017-05-30T04:20:58.936Z,25.48
2017-05-30T04:23:27.278Z,23.68
2017-05-30T04:25:55.626Z,25.68
2017-05-30T04:28:23.209Z,25.40
2017-05-30T04:30:51.565Z,26.06
2017-05-30T04:33:19.882Z,26.20
2017-05-30T04:35:48.210Z,25.84
2017-05-30T04:38:16.568Z,26.08
2017-05-30T04:40:44.896Z,26.02
2017-05-30T04:43:13.249Z,24.68
2017-05-30T04:45:41.564Z,24.10
2017-05-30T04:48:09.956Z,24.94
2017-05-30T04:50:38.279Z,24.04
2017-05-30T04:53:06.642Z,24.08
2017-05-30T04:55:34.987Z,23.42
2017-05-30T04:58:03.311Z,24.72
2017-05-30T05:00:31.691Z,24.06
2017-05-30T05:03:00.014Z,24.76
2017-05-30T05:05:28.407Z,24.80
2017-05-30T05:07:56.748Z,24.42
2017-05-30T05:10:25.075Z,24.76
2017-05-30T05:12:53.419Z,23.16
2017-05-30T05:15:21.735Z,24.00
2017-05-30T05:17:50.099Z,25.48
2017-05-30T05:20:18.421Z,27.30
2017-05-30T05:22:46.772Z,22.02
2017-05-30T05:25:15.096Z,20.82
2017-05-30T05:27:43.423Z,20.34
2017-05-30T05:30:11.773Z,20.44
2017-05-30T05:32:40.089Z,22.10
2017-05-30T05:35:08.435Z,20.92
2017-05-30T05:37:36.747Z,20.02
2017-05-30T05:40:05.122Z,20.76
2017-05-30T05:42:33.448Z,19.88
2017-05-30T05:45:01.777Z,19.00
2017-05-30T05:47:29.366Z,20.20
2017-05-30T05:49:57.695Z,19.02
2017-05-30T05:52:26.298Z,18.78
2017-05-30T05:54:54.623Z,20.36
2017-05-30T05:57:22.976Z,18.08
2017-05-30T05:59:51.299Z,18.34
2017-05-30T06:02:19.648Z,18.20
2017-05-30T06:04:47.968Z,16.40
2017-05-30T06:07:16.318Z,15.92
2017-05-30T06:09:44.709Z,15.88
2017-05-30T06:12:13.056Z,14.26
2017-05-30T06:14:41.385Z,14.06
2017-05-30T06:17:09.740Z,13.90
2017-05-30T06:19:38.060Z,13.56
2017-05-30T06:22:06.427Z,14.62
2017-05-30T06:24:34.795Z,12.90
2017-05-30T06:27:03.136Z,14.08
2017-05-30T06:29:31.448Z,13.10
2017-05-30T06:31:59.811Z,12.64
2017-05-30T06:34:28.127Z,14.46
2017-05-30T06:36:56.467Z,13.56
2017-05-30T06:39:24.781Z,13.06
2017-05-30T06:41:53.127Z,12.80
2017-05-30T06:44:21.461Z,11.16
2017-05-30T06:46:49.799Z,11.16
2017-05-30T06:49:18.116Z,11.66
2017-05-30T06:51:46.454Z,10.18
2017-05-30T06:54:14.766Z,8.24
2017-05-30T06:56:43.105Z,7.56
2017-05-30T06:59:10.652Z,7.80
2017-05-30T07:01:38.995Z,4.86
2017-05-30T07:04:07.303Z,4.28
2017-05-30T07:06:35.638Z,4.46
2017-05-30T07:09:03.951Z,4.54
2017-05-30T07:11:32.289Z,4.00
2017-05-30T07:14:00.593Z,4.08
2017-05-30T07:16:28.936Z,3.90
2017-05-30T07:18:57.250Z,4.38
2017-05-30T07:21:24.823Z,4.26
2017-05-30T07:23:53.131Z,3.66
2017-05-30T07:26:21.468Z,4.04
2017-05-30T07:28:49.782Z,4.38
2017-05-30T07:31:18.125Z,4.70
2017-05-30T07:33:46.457Z,4.40
2017-05-30T07:36:15.043Z,5.00
2017-05-30T07:38:43.382Z,3.94
2017-05-30T07:41:11.691Z,4.64
2017-05-30T07:43:40.047Z,4.62
2017-05-30T07:46:08.368Z,5.30
2017-05-30T07:48:36.713Z,5.12
2017-05-30T07:51:05.029Z,5.94
2017-05-30T07:53:33.374Z,5.10
2017-05-30T07:56:01.683Z,5.72
2017-05-30T07:58:30.029Z,5.54
2017-05-30T08:00:58.350Z,5.44
2017-05-30T08:03:26.689Z,5.40
2017-05-30T08:05:55.005Z,5.38
2017-05-30T08:08:23.345Z,5.34
2017-05-30T08:10:50.887Z,4.24
2017-05-30T08:13:19.235Z,5.58
2017-05-30T08:15:47.559Z,5.58
2017-05-30T08:18:15.895Z,5.82
2017-05-30T08:20:44.206Z,6.00
2017-05-30T08:23:12.543Z,5.42
2017-05-30T08:25:40.860Z,6.72
2017-05-30T08:28:08.437Z,4.96
2017-05-30T08:30:36.755Z,5.32
2017-05-30T08:33:05.112Z,5.42
2017-05-30T08:35:33.440Z,5.20
2017-05-30T08:38:01.791Z,5.52
2017-05-30T08:40:30.102Z,6.40
2017-05-30T08:42:59.305Z,6.18
2017-05-30T08:45:27.611Z,6.42
2017-05-30T08:47:55.948Z,6.52
2017-05-30T08:50:24.260Z,7.22
2017-05-30T08:52:52.601Z,7.06
2017-05-30T08:55:20.917Z,6.70
2017-05-30T08:57:49.275Z,7.32
2017-05-30T09:00:17.584Z,6.82
2017-05-30T09:02:45.939Z,6.68
2017-05-30T09:05:14.258Z,5.92
2017-05-30T09:07:42.596Z,6.30
2017-05-30T09:10:10.916Z,6.20
2017-05-30T09:12:39.430Z,6.18
2017-05-30T09:15:07.748Z,6.02
2017-05-30T09:17:36.063Z,7.38
2017-05-30T09:20:04.412Z,5.98
2017-05-30T09:22:32.720Z,5.78
2017-05-30T09:25:01.056Z,5.56
2017-05-30T09:27:29.371Z,5.46
2017-05-30T09:29:57.716Z,5.34
2017-05-30T09:32:26.028Z,5.86
2017-05-30T09:34:54.490Z,5.82
2017-05-30T09:37:22.808Z,5.94
2017-05-30T09:39:50.401Z,5.82
2017-05-30T09:42:18.729Z,5.94
2017-05-30T09:44:47.088Z,6.20
2017-05-30T09:47:14.638Z,6.50
2017-05-30T09:49:42.994Z,5.70
2017-05-30T09:52:11.308Z,6.62
2017-05-30T09:54:39.764Z,6.10
2017-05-30T09:57:08.094Z,6.20
2017-05-30T09:59:36.529Z,5.80
2017-05-30T10:02:04.856Z,5.64
2017-05-30T10:04:33.193Z,6.44
2017-05-30T10:07:01.512Z,5.70
2017-05-30T10:09:29.857Z,5.58
2017-05-30T10:11:58.167Z,6.22
2017-05-30T10:14:26.561Z,5.84
2017-05-30T10:16:54.872Z,5.52
2017-05-30T10:19:23.218Z,6.16
2017-05-30T10:21:51.541Z,5.78
2017-05-30T10:24:19.881Z,5.56
2017-05-30T10:26:48.193Z,5.50
2017-05-30T10:29:16.666Z,5.30
2017-05-30T10:31:44.980Z,5.54
2017-05-30T10:34:13.326Z,5.66
2017-05-30T10:36:41.648Z,5.42
2017-05-30T10:39:09.988Z,5.38
2017-05-30T10:41:38.304Z,5.18
2017-05-30T10:44:06.665Z,4.80
2017-05-30T10:46:34.976Z,5.18
2017-05-30T10:49:03.323Z,4.52
2017-05-30T10:51:31.636Z,4.90
2017-05-30T10:53:59.992Z,4.20
2017-05-30T10:56:28.334Z,4.78
2017-05-30T10:58:57.941Z,4.82
2017-05-30T11:01:26.280Z,5.10
2017-05-30T11:03:54.624Z,5.04
2017-05-30T11:06:22.945Z,5.12
2017-05-30T11:08:51.281Z,5.20
2017-05-30T11:11:19.622Z,4.80
2017-05-30T11:13:47.979Z,5.20
2017-05-30T11:16:15.528Z,5.10
2017-05-30T11:18:43.853Z,5.04
2017-05-30T11:21:12.242Z,5.04
2017-05-30T11:23:40.549Z,4.64
2017-05-30T11:26:08.897Z,5.26
2017-05-30T11:28:37.228Z,5.10
2017-05-30T11:31:05.564Z,5.04
2017-05-30T11:33:33.913Z,4.50
2017-05-30T11:36:02.250Z,4.96
2017-05-30T11:38:30.571Z,4.94
2017-05-30T11:40:58.911Z,5.28
2017-05-30T11:43:27.225Z,4.86
2017-05-30T11:45:55.560Z,5.86
2017-05-30T11:48:23.872Z,4.96
2017-05-30T11:50:52.227Z,4.92
2017-05-30T11:53:20.553Z,5.34
2017-05-30T11:55:48.916Z,5.28
2017-05-30T11:58:17.231Z,5.12
2017-05-30T12:00:45.577Z,4.76
2017-05-30T12:03:13.883Z,5.08
2017-05-30T12:05:42.217Z,5.36
2017-05-30T12:08:10.532Z,4.86
2017-05-30T12:10:38.873Z,5.10
2017-05-30T12:13:07.193Z,5.10
2017-05-30T12:15:35.535Z,5.06
2017-05-30T12:18:03.857Z,5.10
2017-05-30T12:20:32.195Z,5.00
2017-05-30T12:23:00.517Z,4.56
2017-05-30T12:25:28.085Z,5.26
2017-05-30T12:27:56.392Z,5.22
2017-05-30T12:30:24.729Z,5.08
2017-05-30T12:32:53.044Z,5.94
2017-05-30T12:35:21.390Z,5.50
2017-05-30T12:37:49.706Z,5.92
2017-05-30T12:40:18.066Z,5.68
2017-05-30T12:42:46.387Z,5.52
2017-05-30T12:45:14.727Z,5.88
2017-05-30T12:47:43.053Z,5.90
2017-05-30T12:50:11.397Z,6.06
2017-05-30T12:52:39.723Z,5.32
2017-05-30T12:55:08.057Z,6.28
2017-05-30T12:57:36.376Z,5.40
2017-05-30T13:00:04.709Z,5.84
2017-05-30T13:02:33.027Z,6.22
2017-05-30T13:05:01.374Z,5.44
2017-05-30T13:07:29.698Z,5.86
2017-05-30T13:09:58.036Z,5.52
2017-05-30T13:12:26.352Z,5.38
2017-05-30T13:14:54.704Z,5.42
2017-05-30T13:17:23.045Z,5.50
2017-05-30T13:19:51.360Z,5.64
2017-05-30T13:22:19.705Z,5.72
2017-05-30T13:24:48.020Z,5.80
2017-05-30T13:27:16.352Z,5.86
2017-05-30T13:29:44.660Z,6.08
2017-05-30T13:32:12.997Z,5.40
2017-05-30T13:34:41.314Z,5.36
2017-05-30T13:37:11.999Z,5.50
2017-05-30T13:39:40.309Z,5.70
2017-05-30T13:42:08.644Z,5.82
2017-05-30T13:44:36.952Z,6.24
2017-05-30T13:47:05.295Z,5.54
2017-05-30T13:49:33.610Z,5.70
2017-05-30T13:52:02.050Z,5.66
2017-05-30T13:54:30.345Z,5.86
2017-05-30T13:56:58.775Z,6.16
2017-05-30T13:59:27.122Z,5.52
2017-05-30T14:01:55.497Z,5.58
2017-05-30T14:04:23.807Z,5.86
2017-05-30T14:06:52.152Z,5.52
2017-05-30T14:09:20.467Z,5.80
2017-05-30T14:11:48.804Z,5.98
2017-05-30T14:14:17.149Z,6.12
2017-05-30T14:16:45.545Z,6.22
2017-05-30T14:19:13.913Z,6.20
2017-05-30T14:21:42.248Z,5.66
2017-05-30T14:24:10.571Z,5.72
2017-05-30T14:26:38.934Z,5.42
2017-05-30T14:29:07.373Z,5.34
2017-05-30T14:31:35.713Z,5.48
2017-05-30T14:34:04.064Z,5.86
2017-05-30T14:36:31.644Z,5.56
2017-05-30T14:38:59.957Z,5.48
2017-05-30T14:41:28.302Z,5.28
2017-05-30T14:43:56.616Z,5.22
2017-05-30T14:46:24.968Z,5.74
2017-05-30T14:48:53.277Z,5.50
2017-05-30T14:51:21.679Z,6.28
2017-05-30T14:53:49.993Z,5.56
2017-05-30T14:56:18.344Z,5.28
2017-05-30T14:58:46.662Z,5.42
2017-05-30T15:01:15.032Z,5.94
2017-05-30T15:03:43.345Z,5.30
2017-05-30T15:06:11.701Z,4.66
2017-05-30T15:08:40.017Z,4.58
2017-05-30T15:11:08.385Z,5.12
2017-05-30T15:13:36.713Z,5.28
2017-05-30T15:16:04.278Z,5.02
2017-05-30T15:18:32.613Z,4.94
2017-05-30T15:21:00.920Z,4.64
2017-05-30T15:23:29.265Z,4.70
2017-05-30T15:25:57.586Z,4.50
2017-05-30T15:28:25.925Z,4.42
2017-05-30T15:30:54.234Z,4.34
2017-05-30T15:33:22.570Z,4.60
2017-05-30T15:35:51.005Z,4.62
2017-05-30T15:38:19.343Z,4.70
2017-05-30T15:40:47.673Z,4.54
2017-05-30T15:43:16.010Z,5.32
2017-05-30T15:45:44.325Z,4.64
2017-05-30T15:48:12.665Z,4.58
2017-05-30T15:50:40.976Z,4.80
2017-05-30T15:53:10.682Z,4.26
2017-05-30T15:55:38.991Z,4.68
2017-05-30T15:58:07.336Z,4.20
2017-05-30T16:00:35.645Z,4.28
2017-05-30T16:03:03.983Z,4.24
2017-05-30T16:05:32.305Z,4.84
2017-05-30T16:08:00.647Z,4.78
2017-05-30T16:10:28.960Z,4.36
2017-05-30T16:12:57.303Z,4.20
2017-05-30T16:15:25.621Z,4.76
2017-05-30T16:17:53.233Z,4.48
2017-05-30T16:20:20.803Z,4.60
2017-05-30T16:22:48.388Z,4.42
2017-05-30T16:25:16.737Z,4.50
2017-05-30T16:27:45.100Z,4.20
2017-05-30T16:30:13.425Z,4.66
2017-05-30T16:32:41.771Z,4.74
2017-05-30T16:35:10.089Z,4.52
2017-05-30T16:37:38.424Z,4.46
2017-05-30T16:40:06.739Z,4.60
2017-05-30T16:42:35.080Z,4.44
2017-05-30T16:45:03.389Z,4.24
2017-05-30T16:47:31.721Z,4.68
2017-05-30T16:50:00.033Z,4.38
2017-05-30T16:52:28.369Z,5.04
2017-05-30T16:54:56.680Z,5.02
2017-05-30T16:57:25.025Z,4.94
2017-05-30T16:59:53.343Z,5.10
2017-05-30T17:02:21.683Z,4.52
2017-05-30T17:04:49.993Z,4.10
2017-05-30T17:07:18.367Z,4.62
2017-05-30T17:09:46.683Z,4.48
2017-05-30T17:12:15.024Z,4.82
2017-05-30T17:14:43.333Z,4.20
2017-05-30T17:17:11.653Z,4.56
2017-05-30T17:19:39.995Z,4.52
2017-05-30T17:22:08.315Z,4.28
2017-05-30T17:24:36.656Z,4.52
2017-05-30T17:27:04.964Z,5.22
2017-05-30T17:29:33.308Z,4.78
2017-05-30T17:32:01.624Z,4.76
2017-05-30T17:34:29.986Z,5.26
2017-05-30T17:36:58.304Z,4.62
2017-05-30T17:39:26.645Z,4.78
2017-05-30T17:41:54.963Z,4.78
2017-05-30T17:44:23.296Z,4.90
2017-05-30T17:46:51.608Z,5.32
2017-05-30T17:49:19.945Z,5.78
2017-05-30T17:51:48.263Z,5.54
2017-05-30T17:54:16.603Z,5.12
2017-05-30T17:56:44.911Z,5.16
2017-05-30T17:59:12.500Z,5.98
2017-05-30T18:01:40.820Z,6.44
2017-05-30T18:04:09.156Z,5.82
2017-05-30T18:06:37.467Z,6.52
2017-05-30T18:09:05.805Z,6.32
2017-05-30T18:11:34.113Z,6.30
2017-05-30T18:14:02.475Z,6.10
2017-05-30T18:16:30.793Z,6.18
2017-05-30T18:18:59.129Z,5.82
2017-05-30T18:21:27.454Z,6.52
2017-05-30T18:23:55.796Z,5.60
2017-05-30T18:26:24.110Z,5.52
2017-05-30T18:28:52.448Z,6.18
2017-05-30T18:31:20.768Z,6.24
2017-05-30T18:33:49.109Z,6.28
2017-05-30T18:36:17.417Z,6.58
2017-05-30T18:38:45.777Z,6.44
2017-05-30T18:41:14.092Z,5.92
2017-05-30T18:43:42.460Z,5.96
2017-05-30T18:46:10.791Z,6.20
2017-05-30T18:48:39.144Z,5.42
2017-05-30T18:51:07.458Z,5.84
2017-05-30T18:53:35.833Z,6.00
2017-05-30T18:56:04.150Z,5.98
2017-05-30T18:58:32.520Z,6.16
2017-05-30T19:01:00.845Z,5.46
2017-05-30T19:03:29.189Z,5.58
2017-05-30T19:05:57.501Z,6.22
2017-05-30T19:08:25.837Z,5.20
2017-05-30T19:10:54.154Z,5.52
2017-05-30T19:13:22.469Z,5.58
2017-05-30T19:15:50.809Z,5.82
2017-05-30T19:18:19.121Z,5.22
2017-05-30T19:20:47.466Z,5.12
2017-05-30T19:23:15.783Z,4.96
2017-05-30T19:25:44.123Z,5.30
2017-05-30T19:28:12.437Z,5.40
2017-05-30T19:30:40.817Z,5.26
2017-05-30T19:33:09.133Z,4.78
2017-05-30T19:35:37.477Z,5.54
2017-05-30T19:38:05.787Z,4.84
2017-05-30T19:40:34.129Z,4.98
2017-05-30T19:43:02.439Z,5.14
2017-05-30T19:45:30.773Z,5.36
2017-05-30T19:47:59.084Z,4.42
2017-05-30T19:50:27.427Z,5.26
2017-05-30T19:52:55.746Z,5.26
2017-05-30T19:55:24.079Z,5.42
2017-05-30T19:57:51.628Z,5.24
2017-05-30T20:00:19.970Z,5.22
2017-05-30T20:02:48.295Z,5.90
2017-05-30T20:05:16.631Z,5.38
2017-05-30T20:07:44.938Z,4.96
2017-05-30T20:10:13.272Z,5.68
2017-05-30T20:12:41.583Z,5.10
2017-05-30T20:15:09.923Z,5.22
2017-05-30T20:17:38.242Z,5.08
2017-05-30T20:20:06.612Z,5.50
2017-05-30T20:22:34.951Z,5.08
2017-05-30T20:25:03.294Z,5.54
2017-05-30T20:27:31.603Z,4.80
2017-05-30T20:29:59.948Z,5.56
2017-05-30T20:32:28.313Z,7.00
2017-05-30T20:34:56.675Z,5.24
2017-05-30T20:37:24.993Z,6.04
2017-05-30T20:39:53.332Z,5.28
2017-05-30T20:42:21.692Z,4.80
2017-05-30T20:44:50.049Z,5.32
2017-05-30T20:47:18.360Z,5.10
2017-05-30T20:49:45.929Z,5.58
2017-05-30T20:52:14.240Z,5.14
2017-05-30T20:54:42.596Z,5.32
2017-05-30T20:57:11.055Z,5.18
2017-05-30T20:59:39.389Z,5.06
2017-05-30T21:02:07.704Z,5.06
2017-05-30T21:04:36.053Z,4.82
2017-05-30T21:07:04.373Z,5.00
2017-05-30T21:09:32.734Z,6.44
2017-05-30T21:12:01.099Z,5.32
2017-05-30T21:14:29.409Z,5.28
2017-05-30T21:16:57.757Z,4.60
2017-05-30T21:19:26.068Z,4.90
2017-05-30T21:21:54.404Z,5.38
2017-05-30T21:24:22.725Z,5.18
2017-05-30T21:26:50.313Z,5.78
2017-05-30T21:29:18.695Z,5.18
2017-05-30T21:31:47.045Z,4.64
2017-05-30T21:34:15.397Z,4.90
2017-05-30T21:36:43.739Z,4.88
2017-05-30T21:39:12.051Z,4.50
2017-05-30T21:41:40.380Z,5.20
2017-05-30T21:44:08.713Z,4.52
2017-05-30T21:46:37.061Z,4.26
2017-05-30T21:49:05.400Z,5.10
2017-05-30T21:51:33.736Z,3.94
2017-05-30T21:54:02.048Z,4.06
2017-05-30T21:56:30.431Z,4.52
2017-05-30T21:58:58.741Z,4.62
2017-05-30T22:01:27.086Z,4.76
2017-05-30T22:03:55.421Z,4.08
2017-05-30T22:06:23.771Z,4.58
2017-05-30T22:08:52.077Z,3.94
2017-05-30T22:11:20.409Z,4.10
2017-05-30T22:13:48.728Z,3.88
2017-05-30T22:16:17.064Z,4.22
2017-05-30T22:18:45.375Z,4.04
2017-05-30T22:21:13.711Z,4.08
2017-05-30T22:23:42.023Z,4.12
2017-05-30T22:26:10.367Z,3.80
2017-05-30T22:28:38.677Z,4.20
2017-05-30T22:31:07.012Z,3.82
2017-05-30T22:33:35.325Z,4.60
2017-05-30T22:36:03.664Z,4.14
2017-05-30T22:38:31.968Z,3.60
2017-05-30T22:41:00.303Z,3.90
2017-05-30T22:43:28.618Z,3.78
2017-05-30T22:45:56.957Z,4.14
2017-05-30T22:48:25.270Z,4.20
2017-05-30T22:50:53.637Z,3.82
2017-05-30T22:53:21.965Z,3.68
2017-05-30T22:55:50.334Z,3.90
2017-05-30T22:58:18.657Z,3.80
2017-05-30T23:00:46.234Z,3.66
2017-05-30T23:03:14.764Z,3.90
2017-05-30T23:05:43.103Z,4.02
2017-05-30T23:08:11.420Z,4.20
2017-05-30T23:10:39.757Z,4.06
2017-05-30T23:13:08.177Z,3.90
2017-05-30T23:15:36.487Z,4.00
2017-05-30T23:18:04.827Z,4.04
2017-05-30T23:20:33.136Z,3.66
2017-05-30T23:23:01.641Z,4.22
2017-05-30T23:25:29.963Z,4.06
2017-05-30T23:27:58.296Z,4.40
2017-05-30T23:30:25.839Z,4.04
2017-05-30T23:32:53.428Z,4.12
2017-05-30T23:35:21.799Z,3.92
2017-05-30T23:37:50.184Z,3.82
2017-05-30T23:40:18.554Z,3.98
2017-05-30T23:42:46.146Z,3.92
2017-05-30T23:45:14.453Z,4.42
2017-05-30T23:47:42.017Z,3.78
2017-05-30T23:50:10.326Z,3.80
2017-05-30T23:52:38.669Z,3.50
2017-05-30T23:55:06.975Z,3.64
2017-05-30T23:57:35.324Z,3.98
